Time;durP1;ratioP1;P1;durP2;ratioP2;P2;SDS_P1;SDS_P2;PMS_P1;PMS_P2;Temp;Humidity;BMP_temperature;BMP_pressure;BME280_temperature;BME280_humidity;BME280_pressure;Samples;Min_cycle;Max_cycle;Signal;HPM_P1;HPM_P2
2024/01/11 00:01:13;;;;;;;0.00;0.00;;;;;;;2.44;82.97;101820.91;4987969;28;20030;-73
2024/01/11 00:03:38;;;;;;;0.10;0.10;;;;;;;2.41;83.15;101826.63;4942773;28;20037;-73
2024/01/11 00:06:04;;;;;;;0.10;0.10;;;;;;;2.41;83.26;101850.94;4946416;28;20086;-73
2024/01/11 00:08:30;;;;;;;0.00;0.00;;;;;;;2.32;83.14;101847.44;4953715;28;20412;-71
2024/01/11 00:10:55;;;;;;;0.10;0.10;;;;;;;2.19;83.08;101837.22;4956879;28;20058;-73
2024/01/11 00:13:21;;;;;;;0.00;0.00;;;;;;;2.12;83.21;101832.69;4954542;28;20039;-73
2024/01/11 00:15:46;;;;;;;0.00;0.00;;;;;;;2.05;83.15;101851.44;4949806;28;20093;-72
2024/01/11 00:18:12;;;;;;;0.00;0.00;;;;;;;1.87;83.25;101849.81;4952056;28;20038;-73
2024/01/11 00:20:37;;;;;;;0.00;0.00;;;;;;;1.51;83.69;101839.44;4965230;28;20110;-73
2024/01/11 00:23:03;;;;;;;0.00;0.00;;;;;;;1.35;84.30;101845.69;4942395;28;20034;-73
2024/01/11 00:25:28;;;;;;;0.00;0.00;;;;;;;1.17;85.00;101843.19;4976975;28;20097;-73
2024/01/11 00:27:53;;;;;;;0.00;0.00;;;;;;;1.07;85.57;101847.06;4956035;28;20045;-73
2024/01/11 00:30:19;;;;;;;0.00;0.00;;;;;;;1.02;85.91;101852.94;4938580;28;20041;-71
2024/01/11 00:32:44;;;;;;;0.00;0.00;;;;;;;1.04;86.08;101864.41;4961042;28;20037;-74
2024/01/11 00:35:10;;;;;;;0.00;0.00;;;;;;;0.95;86.79;101865.41;4953466;28;20039;-75
2024/01/11 00:37:35;;;;;;;0.00;0.00;;;;;;;1.03;86.41;101873.50;4979439;28;20082;-74
2024/01/11 00:40:01;;;;;;;0.00;0.00;;;;;;;0.90;86.55;101852.44;4942607;28;20036;-77
2024/01/11 00:42:26;;;;;;;0.10;0.10;;;;;;;0.88;86.82;101865.25;4965844;28;20443;-73
2024/01/11 00:44:52;;;;;;;0.00;0.00;;;;;;;0.82;86.77;101880.22;4942172;28;20034;-75
2024/01/11 00:47:17;;;;;;;0.10;0.10;;;;;;;0.65;87.42;101870.41;4967557;28;20033;-74
2024/01/11 00:49:42;;;;;;;0.00;0.00;;;;;;;0.50;87.39;101868.38;4965761;28;20034;-75
2024/01/11 00:52:09;;;;;;;0.10;0.10;;;;;;;0.49;88.45;101880.13;4964929;28;20130;-75
2024/01/11 00:54:35;;;;;;;0.10;0.10;;;;;;;0.47;88.90;101884.84;4974568;28;20121;-74
2024/01/11 00:57:01;;;;;;;0.10;0.10;;;;;;;0.36;88.63;101882.44;4968005;28;20034;-74
2024/01/11 00:59:26;;;;;;;0.00;0.00;;;;;;;0.24;88.53;101878.38;4976050;28;20064;-74
2024/01/11 01:01:52;;;;;;;0.10;0.10;;;;;;;0.13;88.85;101872.28;4988051;28;20219;-74
2024/01/11 01:04:17;;;;;;;0.00;0.00;;;;;;;0.08;89.66;101869.22;4948329;28;20022;-74
2024/01/11 01:06:43;;;;;;;0.00;0.00;;;;;;;0.13;90.15;101888.41;4949081;28;20042;-75
2024/01/11 01:09:09;;;;;;;0.00;0.00;;;;;;;-0.02;89.64;101863.13;4961581;28;20153;-75
2024/01/11 01:11:34;;;;;;;0.00;0.00;;;;;;;-0.02;89.87;101873.88;4968383;28;20042;-75
2024/01/11 01:14:00;;;;;;;0.10;0.10;;;;;;;-0.12;90.46;101867.78;4956728;28;20027;-74
2024/01/11 01:16:25;;;;;;;0.08;0.08;;;;;;;-0.05;90.84;101895.72;4971752;28;20044;-73
2024/01/11 01:18:51;;;;;;;0.10;0.10;;;;;;;-0.10;91.08;101898.88;4953012;28;20026;-75
2024/01/11 01:21:16;;;;;;;0.10;0.10;;;;;;;-0.13;91.46;101898.34;4955743;28;20022;-75
2024/01/11 01:23:42;;;;;;;0.00;0.00;;;;;;;-0.20;91.41;101904.38;4966818;28;20481;-75
2024/01/11 01:26:07;;;;;;;0.10;0.10;;;;;;;-0.26;91.26;101904.19;4941378;28;20030;-74
2024/01/11 01:28:32;;;;;;;0.10;0.10;;;;;;;-0.25;91.55;101912.09;4961193;28;20111;-75
2024/01/11 01:30:58;;;;;;;0.00;0.00;;;;;;;-0.24;92.22;101918.28;4966022;28;20030;-75
2024/01/11 01:33:23;;;;;;;0.10;0.10;;;;;;;-0.29;92.06;101902.63;4959891;28;20038;-75
2024/01/11 01:35:49;;;;;;;0.10;0.10;;;;;;;-0.27;92.23;101910.53;4937004;28;20063;-75
2024/01/11 01:38:14;;;;;;;0.10;0.10;;;;;;;-0.34;92.11;101912.19;4945557;28;20042;-74
2024/01/11 01:40:40;;;;;;;0.00;0.00;;;;;;;-0.40;92.04;101919.03;4955855;28;20587;-75
2024/01/11 01:43:09;;;;;;;0.10;0.10;;;;;;;-0.44;92.52;101925.69;4954140;28;20033;-75
2024/01/11 01:45:34;;;;;;;0.10;0.10;;;;;;;-0.56;92.11;101920.56;4955860;28;20036;-74
2024/01/11 01:48:01;;;;;;;0.10;0.10;;;;;;;-0.59;92.27;101920.88;4941957;28;20423;-75
2024/01/11 01:50:26;;;;;;;0.10;0.10;;;;;;;-0.62;92.88;101921.19;4932089;28;20118;-75
2024/01/11 01:52:52;;;;;;;0.10;0.10;;;;;;;-0.63;92.91;101935.63;4936434;28;20078;-74
2024/01/11 01:55:19;;;;;;;0.00;0.00;;;;;;;-0.67;93.81;101939.66;4944994;28;20035;-74
2024/01/11 01:57:46;;;;;;;0.10;0.10;;;;;;;-0.76;92.88;101936.03;4949361;28;20086;-74
2024/01/11 02:00:15;;;;;;;0.10;0.10;;;;;;;-0.78;92.98;101942.56;4954522;28;20031;-74
2024/01/11 02:02:44;;;;;;;0.00;0.00;;;;;;;-0.90;93.52;101937.41;4967031;28;20038;-74
2024/01/11 02:05:11;;;;;;;0.00;0.00;;;;;;;-0.95;94.12;101947.78;4964031;28;20021;-75
2024/01/11 02:07:37;;;;;;;0.10;0.10;;;;;;;-0.84;94.03;101965.50;4980318;28;20027;-77
2024/01/11 02:10:03;;;;;;;0.10;0.10;;;;;;;-0.89;93.49;101957.91;4964651;28;20426;-74
2024/01/11 02:12:29;;;;;;;0.00;0.00;;;;;;;-0.90;93.72;101975.00;4968162;28;20109;-74
2024/01/11 02:14:54;;;;;;;0.10;0.10;;;;;;;-0.89;93.95;101975.88;4958198;28;20054;-74
2024/01/11 02:17:20;;;;;;;0.10;0.10;;;;;;;-0.91;93.58;101981.38;4945095;28;21814;-75
2024/01/11 02:19:46;;;;;;;0.00;0.00;;;;;;;-0.94;94.80;101976.31;4946014;28;20046;-74
2024/01/11 02:22:35;;;;;;;0.00;0.00;;;;;;;-0.94;94.50;101981.69;4952167;28;20042;-75
2024/01/11 02:25:00;;;;;;;0.00;0.00;;;;;;;-0.95;94.92;101990.75;4975027;28;20118;-74
2024/01/11 02:27:26;;;;;;;0.00;0.00;;;;;;;-1.03;94.39;101982.59;4953802;28;20534;-75
2024/01/11 02:29:51;;;;;;;0.10;0.10;;;;;;;-1.00;94.75;101992.19;4963711;28;20392;-74
2024/01/11 02:32:17;;;;;;;0.10;0.10;;;;;;;-1.07;95.13;101987.44;4929191;28;20069;-75
2024/01/11 02:34:43;;;;;;;0.10;0.10;;;;;;;-1.01;94.55;101995.88;4928688;28;20045;-74
2024/01/11 02:37:08;;;;;;;0.00;0.00;;;;;;;-0.88;94.74;102002.59;4988916;28;20030;-75
2024/01/11 02:39:34;;;;;;;0.10;0.10;;;;;;;-0.83;95.23;101994.06;4984039;28;20027;-74
2024/01/11 02:42:00;;;;;;;0.10;0.10;;;;;;;-0.62;93.95;102007.19;4954301;28;20031;-74
2024/01/11 02:44:26;;;;;;;0.05;0.05;;;;;;;-0.54;94.38;101993.84;4971996;28;20042;-74
2024/01/11 02:46:51;;;;;;;0.10;0.10;;;;;;;-0.36;93.82;102006.41;4963518;28;20117;-74
2024/01/11 02:49:17;;;;;;;0.10;0.10;;;;;;;-0.23;94.21;102014.94;4965671;28;20031;-75
2024/01/11 02:51:42;;;;;;;0.10;0.10;;;;;;;-0.17;93.73;102009.94;4946384;28;20113;-74
2024/01/11 02:54:08;;;;;;;0.00;0.00;;;;;;;-0.05;93.53;102014.88;4960602;28;20045;-74
2024/01/11 02:56:33;;;;;;;0.10;0.10;;;;;;;0.07;92.88;102028.91;4967411;28;20033;-74
2024/01/11 02:58:59;;;;;;;0.10;0.10;;;;;;;0.13;93.02;102022.06;4938912;28;20528;-75
2024/01/11 03:01:24;;;;;;;0.00;0.00;;;;;;;0.22;92.61;102025.66;4950258;28;20011;-74
2024/01/11 03:03:50;;;;;;;0.00;0.00;;;;;;;0.22;92.71;102025.66;4965299;28;20126;-74
2024/01/11 03:06:21;;;;;;;0.00;0.00;;;;;;;0.19;91.69;102016.09;4956471;28;20034;-73
2024/01/11 03:08:46;;;;;;;0.00;0.00;;;;;;;0.30;92.53;102034.63;4965218;28;20117;-74
2024/01/11 03:11:12;;;;;;;0.00;0.00;;;;;;;0.33;92.17;102028.09;4951872;28;20126;-74
2024/01/11 03:13:37;;;;;;;0.00;0.00;;;;;;;0.36;92.09;102029.63;4939547;28;20548;-72
2024/01/11 03:16:04;;;;;;;0.00;0.00;;;;;;;0.40;91.84;102037.22;4941036;28;20026;-74
2024/01/11 03:18:31;;;;;;;0.00;0.00;;;;;;;0.46;91.44;102043.81;4957917;28;20042;-74
2024/01/11 03:20:56;;;;;;;0.00;0.00;;;;;;;0.47;92.00;102049.03;4939516;28;20085;-75
2024/01/11 03:23:22;;;;;;;0.00;0.00;;;;;;;0.51;91.78;102060.31;4956000;28;20432;-75
2024/01/11 03:25:50;;;;;;;0.03;0.03;;;;;;;0.52;91.66;102060.16;4937054;28;20042;-74
2024/01/11 03:28:15;;;;;;;0.00;0.00;;;;;;;0.57;92.17;102066.91;4952031;28;20042;-74
2024/01/11 03:30:40;;;;;;;0.00;0.00;;;;;;;0.57;91.53;102059.72;4946592;28;20042;-75
2024/01/11 03:33:06;;;;;;;0.00;0.00;;;;;;;0.59;91.32;102070.31;4946677;28;20420;-75
2024/01/11 03:35:31;;;;;;;0.00;0.00;;;;;;;0.61;91.18;102073.69;4955852;28;20034;-74
2024/01/11 03:37:57;;;;;;;0.00;0.00;;;;;;;0.43;91.53;102049.53;4955846;28;20038;-74
2024/01/11 03:40:25;;;;;;;0.10;0.10;;;;;;;0.56;91.92;102076.03;4952977;28;20038;-74
2024/01/11 03:42:50;;;;;;;0.00;0.00;;;;;;;0.47;91.93;102070.56;4983888;28;20073;-74
2024/01/11 03:45:18;;;;;;;0.00;0.00;;;;;;;0.30;91.08;102042.69;4964209;28;20086;-74
2024/01/11 03:47:44;;;;;;;0.00;0.00;;;;;;;0.49;91.61;102082.00;4973474;28;20031;-74
2024/01/11 03:50:09;;;;;;;0.10;0.10;;;;;;;0.47;91.60;102077.81;4942002;28;20026;-74
2024/01/11 03:52:35;;;;;;;0.00;0.00;;;;;;;0.47;91.27;102081.34;4950967;28;20572;-74
2024/01/11 03:55:00;;;;;;;0.10;0.10;;;;;;;0.49;91.83;102090.09;4961045;28;20029;-74
2024/01/11 03:57:26;;;;;;;0.10;0.10;;;;;;;0.44;91.95;102080.81;4928314;28;20034;-75
2024/01/11 03:59:51;;;;;;;0.10;0.10;;;;;;;0.49;91.56;102084.72;4962619;28;20157;-74
2024/01/11 04:02:17;;;;;;;0.00;0.00;;;;;;;0.50;91.92;102078.34;4969695;28;20011;-75
2024/01/11 04:04:42;;;;;;;0.00;0.00;;;;;;;0.63;91.50;102101.31;4949115;28;20046;-74
2024/01/11 04:07:07;;;;;;;0.00;0.00;;;;;;;0.64;91.08;102085.00;4958105;28;20027;-74
2024/01/11 04:09:33;;;;;;;0.00;0.00;;;;;;;0.64;90.73;102085.00;4957333;28;20034;-75
2024/01/11 04:11:58;;;;;;;0.10;0.10;;;;;;;0.70;90.76;102091.56;4950946;28;20034;-74
2024/01/11 04:14:25;;;;;;;0.00;0.00;;;;;;;0.77;90.78;102100.69;4962404;28;20469;-73
2024/01/11 04:16:51;;;;;;;0.10;0.10;;;;;;;0.70;90.92;102075.41;4959808;28;20392;-74
2024/01/11 04:19:18;;;;;;;0.00;0.00;;;;;;;0.74;90.75;102079.47;4955998;28;20034;-74
2024/01/11 04:21:46;;;;;;;0.00;0.00;;;;;;;0.89;90.63;102095.03;4961821;28;20034;-74
2024/01/11 04:24:11;;;;;;;0.10;0.10;;;;;;;0.89;90.01;102089.66;4963775;28;20027;-73
2024/01/11 04:26:37;;;;;;;0.00;0.00;;;;;;;0.85;90.21;102084.59;4983220;28;20030;-74
2024/01/11 04:29:03;;;;;;;0.00;0.00;;;;;;;0.89;89.99;102089.66;4946344;28;20046;-73
2024/01/11 04:31:28;;;;;;;0.00;0.00;;;;;;;0.84;89.80;102093.66;4955152;28;20027;-74
2024/01/11 04:33:54;;;;;;;0.00;0.00;;;;;;;0.68;90.37;102091.72;4968385;28;20027;-75
2024/01/11 04:36:19;;;;;;;0.00;0.00;;;;;;;0.35;90.81;102085.28;4942948;28;20456;-74
2024/01/11 04:38:45;;;;;;;0.00;0.00;;;;;;;0.08;91.22;102089.81;4962930;28;20118;-74
2024/01/11 04:41:15;;;;;;;0.00;0.00;;;;;;;-0.19;91.64;102088.91;4970227;28;20613;-74
2024/01/11 04:43:42;;;;;;;0.00;0.00;;;;;;;-0.39;92.23;102093.59;4955435;28;20041;-74
2024/01/11 04:46:17;;;;;;;0.10;0.10;;;;;;;-0.52;92.61;102097.66;4970233;28;20088;-76
2024/01/11 04:48:44;;;;;;;0.00;0.00;;;;;;;-0.66;93.29;102094.47;4978148;28;20030;-74
2024/01/11 04:51:10;;;;;;;0.00;0.00;;;;;;;-0.81;93.86;102093.31;4950240;28;20027;-74
2024/01/11 04:53:43;;;;;;;0.00;0.00;;;;;;;-0.84;93.48;102096.28;4960670;28;20043;-74
2024/01/11 04:56:10;;;;;;;0.10;0.10;;;;;;;-0.80;93.59;102101.22;4971231;28;20030;-73
2024/01/11 04:58:37;;;;;;;0.00;0.00;;;;;;;-0.78;93.64;102120.69;4969024;28;20065;-75
2024/01/11 05:01:04;;;;;;;0.10;0.10;;;;;;;-0.90;94.29;102106.63;4978703;28;20037;-76
2024/01/11 05:03:30;;;;;;;0.00;0.00;;;;;;;-0.90;94.62;102111.16;4984805;28;20035;-74
2024/01/11 05:05:55;;;;;;;0.00;0.00;;;;;;;-0.97;94.97;102105.53;4958444;28;20093;-74
2024/01/11 05:08:21;;;;;;;0.10;0.10;;;;;;;-0.99;94.45;102123.63;4937575;28;21707;-75
2024/01/11 05:10:46;;;;;;;0.00;0.00;;;;;;;-1.11;94.38;102103.31;4945909;28;20059;-76
2024/01/11 05:13:11;;;;;;;0.00;0.00;;;;;;;-1.06;95.42;102112.63;4976748;28;20338;-75
2024/01/11 05:15:37;;;;;;;0.00;0.00;;;;;;;-1.08;94.80;102129.88;4933081;28;20026;-74
2024/01/11 05:18:03;;;;;;;0.10;0.10;;;;;;;-1.09;94.81;102136.25;4964545;28;20058;-76
2024/01/11 05:20:29;;;;;;;0.10;0.10;;;;;;;-1.21;94.78;102124.00;4944141;28;20605;-73
2024/01/11 05:22:55;;;;;;;0.00;0.00;;;;;;;-1.06;94.81;102141.34;4960255;28;20030;-75
2024/01/11 05:25:20;;;;;;;0.00;0.00;;;;;;;-0.97;95.53;102136.91;4958145;28;20026;-75
2024/01/11 05:27:45;;;;;;;0.10;0.10;;;;;;;-0.86;94.80;102141.25;4966696;28;20027;-76
2024/01/11 05:30:11;;;;;;;0.00;0.00;;;;;;;-0.82;94.91;102140.78;4941871;28;20035;-75
2024/01/11 05:32:37;;;;;;;0.00;0.00;;;;;;;-0.82;95.14;102129.22;4938663;28;20060;-76
2024/01/11 05:35:03;;;;;;;0.00;0.00;;;;;;;-0.88;94.82;102131.50;4953060;28;20023;-76
2024/01/11 05:37:28;;;;;;;0.10;0.10;;;;;;;-0.86;95.42;102138.56;4946720;28;20072;-74
2024/01/11 05:39:56;;;;;;;0.00;0.00;;;;;;;-0.81;95.37;102139.81;4946422;28;20045;-75
2024/01/11 05:42:23;;;;;;;0.00;0.00;;;;;;;-0.83;94.46;102144.50;4953520;28;20030;-77
2024/01/11 05:44:48;;;;;;;0.10;0.10;;;;;;;-0.93;94.88;102133.78;4956266;28;20037;-79
2024/01/11 05:47:13;;;;;;;0.00;0.00;;;;;;;-0.99;95.24;102130.81;4931162;28;20034;-77
2024/01/11 05:49:40;;;;;;;0.00;0.00;;;;;;;-1.08;96.20;102136.09;4946737;28;20087;-75
2024/01/11 05:52:05;;;;;;;0.10;0.10;;;;;;;-1.06;95.95;102144.03;4972081;28;20074;-76
2024/01/11 05:54:31;;;;;;;0.00;0.00;;;;;;;-1.18;95.93;102134.44;4962153;28;20120;-77
2024/01/11 05:56:58;;;;;;;0.00;0.00;;;;;;;-1.20;95.80;102141.81;4964025;28;20026;-76
2024/01/11 05:59:24;;;;;;;0.10;0.10;;;;;;;-1.26;96.31;102144.06;4954832;28;20060;-75
2024/01/11 06:01:49;;;;;;;0.10;0.10;;;;;;;-1.30;96.48;102147.19;4976395;28;20023;-75
2024/01/11 06:04:15;;;;;;;0.00;0.00;;;;;;;-1.31;96.58;102151.72;4961620;28;20141;-76
2024/01/11 06:06:40;;;;;;;0.10;0.10;;;;;;;-1.29;97.77;102160.47;4943155;28;21456;-75
2024/01/11 06:09:07;;;;;;;0.00;0.00;;;;;;;-1.28;96.88;102167.53;4947238;28;20030;-76
2024/01/11 06:11:32;;;;;;;0.00;0.00;;;;;;;-1.26;97.33;102170.06;4970335;28;20037;-77
2024/01/11 06:13:58;;;;;;;0.10;0.10;;;;;;;-1.30;98.01;102164.16;4960839;28;20094;-77
2024/01/11 06:16:23;;;;;;;0.00;0.00;;;;;;;-1.30;97.47;102164.16;4950065;28;20054;-77
2024/01/11 06:18:50;;;;;;;0.00;0.00;;;;;;;-1.17;97.74;102179.09;4949646;28;20012;-75
2024/01/11 06:21:16;;;;;;;0.00;0.00;;;;;;;-1.28;98.13;102170.22;4955024;28;20078;-76
2024/01/11 06:23:43;;;;;;;0.10;0.10;;;;;;;-1.27;97.61;102174.59;4956301;28;20034;-76
2024/01/11 06:26:08;;;;;;;0.00;0.00;;;;;;;-1.23;98.00;102178.69;4946529;28;20028;-76
2024/01/11 06:28:34;;;;;;;0.00;0.00;;;;;;;-1.19;98.87;102181.09;4935923;28;20031;-77
2024/01/11 06:31:03;;;;;;;0.00;0.00;;;;;;;-1.23;98.44;102177.81;4954033;28;20062;-76
2024/01/11 06:33:28;;;;;;;0.00;0.00;;;;;;;-1.24;99.10;102190.41;4968104;28;20029;-76
2024/01/11 06:35:54;;;;;;;0.03;0.03;;;;;;;-1.25;98.54;102187.88;4954919;28;20133;-76
2024/01/11 06:38:20;;;;;;;0.10;0.10;;;;;;;-1.47;99.01;102162.22;4985284;28;20027;-75
2024/01/11 06:40:45;;;;;;;0.00;0.00;;;;;;;-1.49;99.76;102164.19;4956974;28;20034;-75
2024/01/11 06:43:11;;;;;;;0.00;0.00;;;;;;;-1.40;99.38;102195.53;4961226;28;20077;-75
2024/01/11 06:45:36;;;;;;;0.00;0.00;;;;;;;-1.42;99.91;102198.38;4970620;28;20031;-75
2024/01/11 06:48:02;;;;;;;0.00;0.00;;;;;;;-1.43;100.00;102206.53;4965596;28;20042;-76
2024/01/11 06:50:28;;;;;;;0.00;0.00;;;;;;;-1.51;99.95;102185.78;4961275;28;20022;-75
2024/01/11 06:52:54;;;;;;;0.00;0.00;;;;;;;-1.38;100.00;102209.66;4951296;28;20046;-75
2024/01/11 06:55:19;;;;;;;0.00;0.00;;;;;;;-1.34;100.00;102215.56;4959223;28;20019;-76
2024/01/11 06:57:48;;;;;;;0.00;0.00;;;;;;;-1.39;100.00;102212.47;4954973;28;20862;-75
2024/01/11 07:00:13;;;;;;;0.00;0.00;;;;;;;-1.47;100.00;102210.53;4958251;28;20044;-75
2024/01/11 07:02:40;;;;;;;0.00;0.00;;;;;;;-1.47;100.00;102215.88;4958589;28;20284;-76
2024/01/11 07:05:07;;;;;;;0.10;0.10;;;;;;;-1.55;100.00;102216.56;4951946;28;20108;-76
2024/01/11 07:07:33;;;;;;;0.00;0.00;;;;;;;-1.53;100.00;102221.81;4953948;28;20030;-75
2024/01/11 07:09:59;;;;;;;0.00;0.00;;;;;;;-1.52;100.00;102226.19;4963827;28;20026;-75
2024/01/11 07:12:25;;;;;;;0.10;0.10;;;;;;;-1.58;100.00;102219.53;4947885;28;20031;-77
2024/01/11 07:14:51;;;;;;;0.10;0.10;;;;;;;-1.58;100.00;102236.50;4979637;28;20087;-76
2024/01/11 07:17:17;;;;;;;0.00;0.00;;;;;;;-1.59;100.00;102232.13;4972583;28;20244;-77
2024/01/11 07:19:46;;;;;;;0.00;0.00;;;;;;;-1.86;100.00;102194.44;4973388;28;20038;-76
2024/01/11 07:22:11;;;;;;;0.00;0.00;;;;;;;-1.56;100.00;102241.75;4962374;28;20022;-77
2024/01/11 07:24:37;;;;;;;0.10;0.10;;;;;;;-1.55;100.00;102235.34;4980984;28;20041;-75
2024/01/11 07:27:06;;;;;;;0.00;0.00;;;;;;;-1.59;100.00;102234.81;4984462;28;20472;-77
2024/01/11 07:29:36;;;;;;;0.10;0.10;;;;;;;-1.75;100.00;102226.47;4954481;28;20026;-77
2024/01/11 07:32:03;;;;;;;0.00;0.00;;;;;;;-1.81;100.00;102238.63;4932262;28;20019;-78
2024/01/11 07:38:24;;;;;;;;;;;;;;;-1.71;100.00;102278.00;4943123;28;20030;-78
2024/01/11 07:40:49;;;;;;;0.10;0.10;;;;;;;-2.03;100.00;102228.13;4959843;28;20005;-75
2024/01/11 07:43:17;;;;;;;0.00;0.00;;;;;;;-1.90;100.00;102252.00;4969176;28;20464;-76
2024/01/11 07:45:42;;;;;;;0.10;0.10;;;;;;;-1.91;100.00;102255.66;4949068;28;20034;-77
2024/01/11 07:48:08;;;;;;;0.10;0.10;;;;;;;-1.96;100.00;102242.69;4985882;28;20023;-76
2024/01/11 07:50:36;;;;;;;0.00;0.00;;;;;;;-1.85;100.00;102260.50;4969197;28;20018;-77
2024/01/11 07:53:04;;;;;;;0.00;0.00;;;;;;;-1.89;100.00;102251.03;4962957;28;20428;-76
2024/01/11 07:55:35;;;;;;;0.00;0.00;;;;;;;-1.67;100.00;102285.63;4966875;28;20034;-76
2024/01/11 07:58:21;;;;;;;0.00;0.00;;;;;;;-1.86;100.00;102253.44;4967082;28;20436;-76
2024/01/11 08:01:12;;;;;;;0.00;0.00;;;;;;;-1.60;100.00;102291.28;4967722;28;20023;-78
2024/01/11 08:03:38;;;;;;;0.10;0.10;;;;;;;-1.81;100.00;102245.78;4960867;28;20038;-76
2024/01/11 08:06:16;;;;;;;0.10;0.10;;;;;;;-1.54;100.00;102289.91;4970714;28;20086;-75
2024/01/11 08:09:04;;;;;;;0.10;0.10;;;;;;;-1.80;100.00;102248.34;4956282;28;20053;-76
2024/01/11 08:11:30;;;;;;;0.00;0.00;;;;;;;-1.77;100.00;102255.25;4968671;28;20039;-77
2024/01/11 08:14:45;;;;;;;0.10;0.10;;;;;;;-1.45;100.00;102294.41;4973860;28;20461;-76
2024/01/11 08:17:26;;;;;;;0.08;0.08;;;;;;;-1.35;100.00;102321.25;4969819;28;20046;-76
2024/01/11 08:20:00;;;;;;;0.00;0.00;;;;;;;-1.40;100.00;102305.56;4964631;28;20054;-76
2024/01/11 08:22:34;;;;;;;0.10;0.10;;;;;;;-1.39;100.00;102303.72;4962203;28;20090;-76
2024/01/11 08:25:10;;;;;;;0.10;0.10;;;;;;;-1.19;100.00;102326.06;4942032;28;20131;-76
2024/01/11 08:27:45;;;;;;;0.00;0.00;;;;;;;-1.30;100.00;102303.75;4959709;28;20057;-77
2024/01/11 08:30:42;;;;;;;0.00;0.00;;;;;;;-1.23;100.00;102302.19;4964787;28;20059;-76
2024/01/11 08:33:13;;;;;;;0.10;0.10;;;;;;;-1.11;100.00;102319.00;4972391;28;20038;-76
2024/01/11 08:35:48;;;;;;;0.00;0.00;;;;;;;-1.25;100.00;102289.88;4981089;28;20034;-77
2024/01/11 08:38:18;;;;;;;0.10;0.10;;;;;;;-1.18;100.00;102296.38;4966762;28;20022;-76
2024/01/11 08:41:00;;;;;;;0.00;0.00;;;;;;;-1.07;100.00;102311.47;4963590;28;20353;-75
2024/01/11 08:43:48;;;;;;;0.00;0.00;;;;;;;-1.03;100.00;102304.84;4965850;28;20133;-76
2024/01/11 08:46:30;;;;;;;0.10;0.10;;;;;;;-1.11;100.00;102285.91;4956585;28;20480;-76
2024/01/11 08:48:56;;;;;;;0.10;0.10;;;;;;;-0.82;100.00;102322.63;4967861;28;20038;-76
2024/01/11 08:51:30;;;;;;;0.10;0.10;;;;;;;-0.71;100.00;102330.53;4958166;28;20034;-77
2024/01/11 08:53:56;;;;;;;0.10;0.10;;;;;;;-0.55;100.00;102346.88;4978201;28;20039;-76
2024/01/11 08:56:22;;;;;;;0.10;0.10;;;;;;;-0.46;100.00;102344.31;4984744;28;20448;-77
2024/01/11 09:02:13;;;;;;;0.00;0.00;;;;;;;-0.62;100.00;102299.25;4952952;28;21067;-77
2024/01/11 09:04:39;;;;;;;0.10;0.10;;;;;;;-0.57;100.00;102297.81;4956267;28;20046;-76
2024/01/11 09:07:10;;;;;;;0.00;0.00;;;;;;;-0.15;100.00;102349.44;4979798;28;20038;-76
2024/01/11 09:10:05;;;;;;;0.00;0.00;;;;;;;-0.46;100.00;102290.56;4954559;28;20040;-76
2024/01/11 09:12:31;;;;;;;0.00;0.00;;;;;;;-0.30;100.00;102306.91;4957952;28;20038;-77
2024/01/11 09:15:25;;;;;;;;;;;;;;;;;;;;;
2024/01/11 09:18:36;;;;;;;0.10;0.10;;;;;;;-0.13;100.00;102309.81;4979372;28;20399;-77
2024/01/11 09:21:15;;;;;;;0.00;0.00;;;;;;;0.06;100.00;102328.56;4926608;28;20105;-76
2024/01/11 09:30:19;;;;;;;0.10;0.10;;;;;;;0.58;100.00;102380.94;4836181;29;20034;-77
2024/01/11 09:33:07;;;;;;;;;;;;;;;;;;;;;
2024/01/11 09:35:59;;;;;;;0.00;0.00;;;;;;;0.65;100.00;102347.00;4857992;29;20148;-76
2024/01/11 09:38:24;;;;;;;0.10;0.10;;;;;;;1.20;100.00;102376.47;4842480;29;20134;-75
2024/01/11 09:41:25;;;;;;;0.00;0.00;;;;;;;3.86;100.00;102402.22;4863249;29;20091;-77
2024/01/11 09:44:14;;;;;;;0.00;0.00;;;;;;;8.91;82.01;102403.63;4900005;29;20121;-76
2024/01/11 09:46:54;;;;;;;0.00;0.00;;;;;;;11.72;63.62;102370.81;4956165;28;20069;-76
2024/01/11 09:49:22;;;;;;;0.10;0.10;;;;;;;14.24;53.98;102399.44;4975269;28;20070;-76
2024/01/11 09:52:46;;;;;;;0.00;0.00;;;;;;;16.01;47.73;102389.34;4961887;28;20049;-77
2024/01/11 09:55:13;;;;;;;0.10;0.10;;;;;;;17.52;43.85;102374.09;4979031;28;20054;-77
2024/01/11 09:57:46;;;;;;;0.00;0.00;;;;;;;18.28;41.17;102401.41;4983120;28;20026;-77
2024/01/11 10:00:24;;;;;;;0.00;0.00;;;;;;;19.12;39.00;102417.19;4977603;28;20756;-77
2024/01/11 10:02:49;;;;;;;0.00;0.00;;;;;;;19.56;37.84;102416.63;4970195;28;20038;-77
2024/01/11 10:05:18;;;;;;;0.00;0.00;;;;;;;20.35;35.93;102428.13;4962797;28;20400;-77
2024/01/11 10:07:45;;;;;;;0.00;0.00;;;;;;;20.51;34.80;102433.63;4971606;28;20061;-77
2024/01/11 10:10:11;;;;;;;0.00;0.00;;;;;;;20.67;33.34;102424.13;4963913;28;20366;-77
2024/01/11 10:12:37;;;;;;;0.00;0.00;;;;;;;21.24;33.20;102437.66;4952043;28;20125;-78
2024/01/11 10:15:09;;;;;;;0.00;0.00;;;;;;;21.86;32.45;102453.84;4943457;28;20296;-77
2024/01/11 10:17:45;;;;;;;0.00;0.00;;;;;;;22.35;31.94;102444.41;4963550;28;20022;-77
2024/01/11 10:20:23;;;;;;;0.00;0.00;;;;;;;23.07;30.71;102425.88;4971592;28;20449;-76
2024/01/11 10:22:51;;;;;;;0.00;0.00;;;;;;;23.44;29.42;102430.59;4950022;28;20050;-75
2024/01/11 10:25:17;;;;;;;0.00;0.00;;;;;;;24.64;28.90;102422.44;4974558;28;20109;-77
2024/01/11 10:27:48;;;;;;;0.00;0.00;;;;;;;24.62;27.13;102437.88;4974698;28;20038;-79
2024/01/11 10:30:19;;;;;;;0.00;0.00;;;;;;;25.00;27.06;102417.97;4975815;28;20065;-77
2024/01/11 10:33:02;;;;;;;0.00;0.00;;;;;;;25.66;26.98;102425.91;4956860;28;20568;-77
2024/01/11 10:35:28;;;;;;;0.00;0.00;;;;;;;25.89;25.76;102419.09;4959939;28;20034;-76
2024/01/11 10:38:05;;;;;;;0.10;0.10;;;;;;;26.08;25.97;102416.06;4960313;28;20080;-77
2024/01/11 10:40:31;;;;;;;0.00;0.00;;;;;;;25.91;24.81;102402.75;4973874;28;20026;-78
2024/01/11 10:43:01;;;;;;;0.00;0.00;;;;;;;26.09;24.62;102419.69;4937459;28;20019;-77
2024/01/11 10:45:28;;;;;;;0.00;0.00;;;;;;;26.72;24.29;102422.31;4981691;28;20476;-76
2024/01/11 10:48:01;;;;;;;0.00;0.00;;;;;;;27.06;23.79;102409.44;4963062;28;20098;-77
2024/01/11 10:50:34;;;;;;;0.00;0.00;;;;;;;26.98;22.60;102403.53;4943724;28;20035;-79
2024/01/11 10:53:44;;;;;;;0.00;0.00;;;;;;;27.40;23.14;102427.44;4975130;28;20051;-79
2024/01/11 10:56:15;;;;;;;0.00;0.00;;;;;;;28.02;21.53;102404.47;4961000;28;20026;-77
2024/01/11 10:58:42;;;;;;;0.00;0.00;;;;;;;28.85;22.15;102429.44;4963809;28;20357;-77
2024/01/11 11:01:12;;;;;;;0.00;0.00;;;;;;;28.95;21.62;102422.56;4961699;28;20030;-79
2024/01/11 11:03:38;;;;;;;0.00;0.00;;;;;;;29.00;20.98;102426.00;4979014;28;20025;-78
2024/01/11 11:06:08;;;;;;;0.00;0.00;;;;;;;29.32;20.63;102415.13;4975480;28;20031;-78
2024/01/11 11:08:36;;;;;;;0.00;0.00;;;;;;;29.86;20.07;102421.81;4960661;28;20022;-78
2024/01/11 11:11:08;;;;;;;0.00;0.00;;;;;;;30.66;19.94;102434.50;4945533;28;20026;-78
2024/01/11 11:13:37;;;;;;;0.00;0.00;;;;;;;31.06;19.76;102416.75;4945376;28;20026;-78
2024/01/11 11:16:08;;;;;;;0.00;0.00;;;;;;;31.99;18.51;102414.78;4967251;28;20037;-80
2024/01/11 11:18:41;;;;;;;0.00;0.00;;;;;;;32.24;18.38;102414.59;4962273;28;20034;-78
2024/01/11 11:21:13;;;;;;;0.00;0.00;;;;;;;32.13;18.15;102423.66;4961093;28;20034;-79
2024/01/11 11:23:39;;;;;;;0.00;0.00;;;;;;;31.48;18.49;102396.53;4968801;28;20030;-78
2024/01/11 11:26:16;;;;;;;0.00;0.00;;;;;;;30.02;19.55;102390.94;4963238;28;20840;-77
2024/01/11 11:28:52;;;;;;;0.00;0.00;;;;;;;28.04;20.85;102415.38;4973076;28;20126;-78
2024/01/11 11:31:43;;;;;;;0.00;0.00;;;;;;;26.50;21.28;102426.88;4956892;28;20014;-77
2024/01/11 11:34:20;;;;;;;0.00;0.00;;;;;;;24.39;23.77;102421.00;4974618;28;20070;-78
2024/01/11 11:37:00;;;;;;;0.00;0.00;;;;;;;22.32;25.27;102417.16;4961587;28;20138;-79
2024/01/11 11:39:27;;;;;;;0.00;0.00;;;;;;;22.87;26.31;102379.59;4969315;28;20038;-77
2024/01/11 11:41:57;;;;;;;0.00;0.00;;;;;;;25.06;23.72;102416.72;4971434;28;20015;-77
2024/01/11 11:44:32;;;;;;;0.00;0.00;;;;;;;24.98;22.75;102409.06;4967977;28;20054;-78
2024/01/11 11:54:14;;;;;;;0.00;0.00;;;;;;;24.91;22.80;102418.75;4877196;28;20093;-79
2024/01/11 11:56:41;;;;;;;0.00;0.00;;;;;;;24.14;23.71;102419.56;4965600;28;20037;-79
2024/01/11 11:59:09;;;;;;;0.00;0.00;;;;;;;21.53;25.57;102423.00;4960234;28;20065;-78